sensor_id;sensor_type;location;lat;lon;timestamp;P1;durP1;ratioP1;P2;durP2;ratioP2
44774;SDS011;31340;51.402;0.016;2023-05-16T00:01:12;10.93;;;4.03;;
44774;SDS011;31340;51.402;0.016;2023-05-16T00:03:40;9.00;;;3.58;;
44774;SDS011;31340;51.402;0.016;2023-05-16T00:06:09;7.97;;;3.40;;
44774;SDS011;31340;51.402;0.016;2023-05-16T00:08:37;13.10;;;3.92;;
44774;SDS011;31340;51.402;0.016;2023-05-16T00:11:05;7.47;;;3.20;;
44774;SDS011;31340;51.402;0.016;2023-05-16T00:13:32;10.98;;;3.60;;
44774;SDS011;31340;51.402;0.016;2023-05-16T00:16:00;10.57;;;3.70;;
44774;SDS011;31340;51.402;0.016;2023-05-16T00:18:28;12.30;;;3.72;;
44774;SDS011;31340;51.402;0.016;2023-05-16T00:20:56;11.05;;;3.25;;
44774;SDS011;31340;51.402;0.016;2023-05-16T00:23:24;9.75;;;3.28;;
44774;SDS011;31340;51.402;0.016;2023-05-16T00:25:51;12.10;;;3.85;;
44774;SDS011;31340;51.402;0.016;2023-05-16T00:28:21;12.60;;;3.95;;
44774;SDS011;31340;51.402;0.016;2023-05-16T00:30:48;11.73;;;4.40;;
44774;SDS011;31340;51.402;0.016;2023-05-16T00:33:16;11.18;;;4.68;;
44774;SDS011;31340;51.402;0.016;2023-05-16T00:35:44;12.73;;;4.93;;
44774;SDS011;31340;51.402;0.016;2023-05-16T00:38:11;10.35;;;4.28;;
44774;SDS011;31340;51.402;0.016;2023-05-16T00:40:39;14.60;;;4.82;;
44774;SDS011;31340;51.402;0.016;2023-05-16T00:43:08;10.55;;;3.70;;
44774;SDS011;31340;51.402;0.016;2023-05-16T00:45:36;10.75;;;4.38;;
44774;SDS011;31340;51.402;0.016;2023-05-16T00:48:04;9.60;;;3.42;;
44774;SDS011;31340;51.402;0.016;2023-05-16T00:50:32;14.23;;;4.43;;
44774;SDS011;31340;51.402;0.016;2023-05-16T00:53:01;14.90;;;4.20;;
44774;SDS011;31340;51.402;0.016;2023-05-16T00:55:29;12.90;;;4.43;;
44774;SDS011;31340;51.402;0.016;2023-05-16T00:58:00;11.23;;;4.50;;
44774;SDS011;31340;51.402;0.016;2023-05-16T01:00:29;11.60;;;4.30;;
44774;SDS011;31340;51.402;0.016;2023-05-16T01:02:57;10.15;;;4.30;;
44774;SDS011;31340;51.402;0.016;2023-05-16T01:05:25;13.40;;;4.15;;
44774;SDS011;31340;51.402;0.016;2023-05-16T01:07:53;12.88;;;4.60;;
44774;SDS011;31340;51.402;0.016;2023-05-16T01:10:21;13.15;;;5.30;;
44774;SDS011;31340;51.402;0.016;2023-05-16T01:13:00;11.07;;;4.70;;
44774;SDS011;31340;51.402;0.016;2023-05-16T01:15:43;12.95;;;4.28;;
44774;SDS011;31340;51.402;0.016;2023-05-16T01:18:28;8.93;;;4.00;;
44774;SDS011;31340;51.402;0.016;2023-05-16T01:21:18;15.88;;;4.68;;
44774;SDS011;31340;51.402;0.016;2023-05-16T01:23:58;10.75;;;4.65;;
44774;SDS011;31340;51.402;0.016;2023-05-16T01:26:33;11.05;;;4.97;;
44774;SDS011;31340;51.402;0.016;2023-05-16T01:29:02;18.10;;;4.70;;
44774;SDS011;31340;51.402;0.016;2023-05-16T01:31:30;14.27;;;5.03;;
44774;SDS011;31340;51.402;0.016;2023-05-16T01:33:58;12.43;;;4.65;;
44774;SDS011;31340;51.402;0.016;2023-05-16T01:42:13;11.93;;;4.65;;
44774;SDS011;31340;51.402;0.016;2023-05-16T01:47:30;10.75;;;4.22;;
44774;SDS011;31340;51.402;0.016;2023-05-16T01:50:14;12.40;;;4.25;;
44774;SDS011;31340;51.402;0.016;2023-05-16T01:52:49;11.45;;;4.47;;
44774;SDS011;31340;51.402;0.016;2023-05-16T01:55:31;10.48;;;4.63;;
44774;SDS011;31340;51.402;0.016;2023-05-16T01:58:08;13.23;;;4.82;;
44774;SDS011;31340;51.402;0.016;2023-05-16T02:00:37;12.70;;;5.10;;
44774;SDS011;31340;51.402;0.016;2023-05-16T02:03:06;10.27;;;4.00;;
44774;SDS011;31340;51.402;0.016;2023-05-16T02:05:35;9.98;;;5.00;;
44774;SDS011;31340;51.402;0.016;2023-05-16T02:08:03;14.57;;;4.57;;
44774;SDS011;31340;51.402;0.016;2023-05-16T02:10:31;18.33;;;4.85;;
44774;SDS011;31340;51.402;0.016;2023-05-16T02:12:59;9.73;;;4.93;;
44774;SDS011;31340;51.402;0.016;2023-05-16T02:15:27;16.17;;;4.75;;
44774;SDS011;31340;51.402;0.016;2023-05-16T02:17:55;12.13;;;4.38;;
44774;SDS011;31340;51.402;0.016;2023-05-16T02:20:24;12.63;;;4.85;;
44774;SDS011;31340;51.402;0.016;2023-05-16T02:22:53;15.80;;;4.40;;
44774;SDS011;31340;51.402;0.016;2023-05-16T02:25:21;13.75;;;5.68;;
44774;SDS011;31340;51.402;0.016;2023-05-16T02:27:48;11.32;;;5.13;;
44774;SDS011;31340;51.402;0.016;2023-05-16T02:30:16;15.02;;;4.90;;
44774;SDS011;31340;51.402;0.016;2023-05-16T02:32:44;15.00;;;4.68;;
44774;SDS011;31340;51.402;0.016;2023-05-16T02:35:12;12.20;;;4.57;;
44774;SDS011;31340;51.402;0.016;2023-05-16T02:37:40;11.23;;;5.35;;
44774;SDS011;31340;51.402;0.016;2023-05-16T02:40:08;12.32;;;4.35;;
44774;SDS011;31340;51.402;0.016;2023-05-16T02:42:36;9.55;;;5.03;;
44774;SDS011;31340;51.402;0.016;2023-05-16T02:45:04;11.75;;;4.65;;
44774;SDS011;31340;51.402;0.016;2023-05-16T02:47:32;15.85;;;4.90;;
44774;SDS011;31340;51.402;0.016;2023-05-16T02:50:00;9.40;;;4.25;;
44774;SDS011;31340;51.402;0.016;2023-05-16T02:52:28;14.63;;;4.75;;
44774;SDS011;31340;51.402;0.016;2023-05-16T02:54:56;11.80;;;4.45;;
44774;SDS011;31340;51.402;0.016;2023-05-16T02:57:44;15.10;;;5.40;;
44774;SDS011;31340;51.402;0.016;2023-05-16T03:00:12;10.48;;;4.93;;
44774;SDS011;31340;51.402;0.016;2023-05-16T03:02:43;11.00;;;4.82;;
44774;SDS011;31340;51.402;0.016;2023-05-16T03:05:11;11.25;;;4.25;;
44774;SDS011;31340;51.402;0.016;2023-05-16T03:07:39;12.40;;;4.78;;
44774;SDS011;31340;51.402;0.016;2023-05-16T03:10:07;14.10;;;4.32;;
44774;SDS011;31340;51.402;0.016;2023-05-16T03:12:35;11.00;;;4.70;;
44774;SDS011;31340;51.402;0.016;2023-05-16T03:15:03;11.27;;;4.75;;
44774;SDS011;31340;51.402;0.016;2023-05-16T03:17:31;8.90;;;4.15;;
44774;SDS011;31340;51.402;0.016;2023-05-16T03:19:59;12.32;;;4.78;;
44774;SDS011;31340;51.402;0.016;2023-05-16T03:22:26;10.40;;;4.57;;
44774;SDS011;31340;51.402;0.016;2023-05-16T03:24:54;11.85;;;4.30;;
44774;SDS011;31340;51.402;0.016;2023-05-16T03:27:22;14.20;;;4.85;;
44774;SDS011;31340;51.402;0.016;2023-05-16T03:29:50;11.77;;;4.88;;
44774;SDS011;31340;51.402;0.016;2023-05-16T03:32:18;13.15;;;4.43;;
44774;SDS011;31340;51.402;0.016;2023-05-16T03:34:46;12.57;;;4.63;;
44774;SDS011;31340;51.402;0.016;2023-05-16T03:37:13;10.38;;;4.68;;
44774;SDS011;31340;51.402;0.016;2023-05-16T03:39:42;11.02;;;4.80;;
44774;SDS011;31340;51.402;0.016;2023-05-16T03:42:09;12.93;;;4.82;;
44774;SDS011;31340;51.402;0.016;2023-05-16T03:44:37;13.40;;;4.55;;
44774;SDS011;31340;51.402;0.016;2023-05-16T03:47:05;11.52;;;4.97;;
44774;SDS011;31340;51.402;0.016;2023-05-16T03:49:32;10.52;;;4.78;;
44774;SDS011;31340;51.402;0.016;2023-05-16T03:52:00;10.02;;;5.07;;
44774;SDS011;31340;51.402;0.016;2023-05-16T03:54:28;13.27;;;4.70;;
44774;SDS011;31340;51.402;0.016;2023-05-16T03:56:55;12.45;;;4.40;;
44774;SDS011;31340;51.402;0.016;2023-05-16T03:59:23;11.45;;;4.47;;
44774;SDS011;31340;51.402;0.016;2023-05-16T04:01:50;14.23;;;5.15;;
44774;SDS011;31340;51.402;0.016;2023-05-16T04:04:18;15.05;;;5.43;;
44774;SDS011;31340;51.402;0.016;2023-05-16T04:06:46;11.00;;;4.63;;
44774;SDS011;31340;51.402;0.016;2023-05-16T04:09:14;12.43;;;4.90;;
44774;SDS011;31340;51.402;0.016;2023-05-16T04:11:42;15.48;;;5.13;;
44774;SDS011;31340;51.402;0.016;2023-05-16T04:14:09;9.82;;;4.60;;
44774;SDS011;31340;51.402;0.016;2023-05-16T04:16:37;11.95;;;4.97;;
44774;SDS011;31340;51.402;0.016;2023-05-16T04:19:05;11.35;;;5.35;;
44774;SDS011;31340;51.402;0.016;2023-05-16T04:21:33;16.48;;;5.07;;
44774;SDS011;31340;51.402;0.016;2023-05-16T04:24:02;12.73;;;4.90;;
44774;SDS011;31340;51.402;0.016;2023-05-16T04:26:30;10.27;;;4.70;;
44774;SDS011;31340;51.402;0.016;2023-05-16T04:28:58;9.77;;;4.35;;
44774;SDS011;31340;51.402;0.016;2023-05-16T04:31:26;13.18;;;4.63;;
44774;SDS011;31340;51.402;0.016;2023-05-16T04:33:54;14.98;;;5.22;;
44774;SDS011;31340;51.402;0.016;2023-05-16T04:36:22;12.82;;;5.15;;
44774;SDS011;31340;51.402;0.016;2023-05-16T04:38:50;13.55;;;5.28;;
44774;SDS011;31340;51.402;0.016;2023-05-16T04:41:18;16.25;;;5.90;;
44774;SDS011;31340;51.402;0.016;2023-05-16T04:43:46;10.90;;;5.28;;
44774;SDS011;31340;51.402;0.016;2023-05-16T04:46:13;10.60;;;5.35;;
44774;SDS011;31340;51.402;0.016;2023-05-16T04:48:43;11.77;;;4.88;;
44774;SDS011;31340;51.402;0.016;2023-05-16T04:51:11;12.13;;;5.28;;
44774;SDS011;31340;51.402;0.016;2023-05-16T04:53:39;13.23;;;5.40;;
44774;SDS011;31340;51.402;0.016;2023-05-16T04:56:06;12.80;;;5.10;;
44774;SDS011;31340;51.402;0.016;2023-05-16T04:58:34;12.43;;;4.88;;
44774;SDS011;31340;51.402;0.016;2023-05-16T05:01:02;10.10;;;4.85;;
44774;SDS011;31340;51.402;0.016;2023-05-16T05:03:30;11.75;;;5.03;;
44774;SDS011;31340;51.402;0.016;2023-05-16T05:05:58;12.18;;;5.18;;
44774;SDS011;31340;51.402;0.016;2023-05-16T05:08:25;11.63;;;5.35;;
44774;SDS011;31340;51.402;0.016;2023-05-16T05:10:54;9.98;;;4.63;;
44774;SDS011;31340;51.402;0.016;2023-05-16T05:13:22;15.70;;;4.90;;
44774;SDS011;31340;51.402;0.016;2023-05-16T05:15:50;12.63;;;5.25;;
44774;SDS011;31340;51.402;0.016;2023-05-16T05:18:18;13.07;;;6.47;;
44774;SDS011;31340;51.402;0.016;2023-05-16T05:20:46;10.90;;;5.60;;
44774;SDS011;31340;51.402;0.016;2023-05-16T05:23:16;12.50;;;6.27;;
44774;SDS011;31340;51.402;0.016;2023-05-16T05:25:44;10.75;;;5.70;;
44774;SDS011;31340;51.402;0.016;2023-05-16T05:28:13;16.35;;;5.93;;
44774;SDS011;31340;51.402;0.016;2023-05-16T05:30:41;17.70;;;6.60;;
44774;SDS011;31340;51.402;0.016;2023-05-16T05:33:09;10.00;;;5.10;;
44774;SDS011;31340;51.402;0.016;2023-05-16T05:35:42;11.63;;;5.43;;
44774;SDS011;31340;51.402;0.016;2023-05-16T05:38:10;13.68;;;5.40;;
44774;SDS011;31340;51.402;0.016;2023-05-16T05:40:37;10.27;;;5.53;;
44774;SDS011;31340;51.402;0.016;2023-05-16T05:43:05;13.07;;;5.40;;
44774;SDS011;31340;51.402;0.016;2023-05-16T05:45:33;17.13;;;5.63;;
44774;SDS011;31340;51.402;0.016;2023-05-16T05:48:00;12.32;;;4.80;;
44774;SDS011;31340;51.402;0.016;2023-05-16T05:50:28;10.70;;;4.93;;
44774;SDS011;31340;51.402;0.016;2023-05-16T05:52:56;12.13;;;5.25;;
44774;SDS011;31340;51.402;0.016;2023-05-16T05:55:23;14.10;;;4.57;;
44774;SDS011;31340;51.402;0.016;2023-05-16T05:57:51;17.77;;;4.95;;
44774;SDS011;31340;51.402;0.016;2023-05-16T06:00:19;13.40;;;4.72;;
44774;SDS011;31340;51.402;0.016;2023-05-16T06:02:48;12.60;;;4.82;;
44774;SDS011;31340;51.402;0.016;2023-05-16T06:05:15;10.70;;;4.60;;
44774;SDS011;31340;51.402;0.016;2023-05-16T06:07:43;11.48;;;4.57;;
44774;SDS011;31340;51.402;0.016;2023-05-16T06:10:11;11.38;;;4.70;;
44774;SDS011;31340;51.402;0.016;2023-05-16T06:12:38;13.57;;;4.65;;
44774;SDS011;31340;51.402;0.016;2023-05-16T06:15:06;12.02;;;4.55;;
44774;SDS011;31340;51.402;0.016;2023-05-16T06:17:34;11.32;;;4.05;;
44774;SDS011;31340;51.402;0.016;2023-05-16T06:20:02;13.63;;;4.30;;
44774;SDS011;31340;51.402;0.016;2023-05-16T06:22:30;17.27;;;4.65;;
44774;SDS011;31340;51.402;0.016;2023-05-16T06:24:58;14.35;;;3.92;;
44774;SDS011;31340;51.402;0.016;2023-05-16T06:27:26;12.13;;;3.67;;
44774;SDS011;31340;51.402;0.016;2023-05-16T06:29:54;11.18;;;3.97;;
44774;SDS011;31340;51.402;0.016;2023-05-16T06:32:22;14.55;;;3.97;;
44774;SDS011;31340;51.402;0.016;2023-05-16T06:34:50;12.05;;;3.55;;
44774;SDS011;31340;51.402;0.016;2023-05-16T06:37:18;19.83;;;4.05;;
44774;SDS011;31340;51.402;0.016;2023-05-16T06:39:45;13.10;;;3.80;;
44774;SDS011;31340;51.402;0.016;2023-05-16T06:42:13;15.13;;;3.78;;
44774;SDS011;31340;51.402;0.016;2023-05-16T06:44:42;13.02;;;3.88;;
44774;SDS011;31340;51.402;0.016;2023-05-16T06:47:16;13.20;;;3.70;;
44774;SDS011;31340;51.402;0.016;2023-05-16T06:49:44;14.48;;;3.70;;
44774;SDS011;31340;51.402;0.016;2023-05-16T06:52:12;16.48;;;4.03;;
44774;SDS011;31340;51.402;0.016;2023-05-16T06:54:39;14.73;;;3.83;;
44774;SDS011;31340;51.402;0.016;2023-05-16T06:57:07;20.30;;;4.10;;
44774;SDS011;31340;51.402;0.016;2023-05-16T06:59:34;21.63;;;5.90;;
44774;SDS011;31340;51.402;0.016;2023-05-16T07:02:02;13.68;;;3.75;;
44774;SDS011;31340;51.402;0.016;2023-05-16T07:04:30;15.25;;;3.88;;
44774;SDS011;31340;51.402;0.016;2023-05-16T07:06:58;8.73;;;3.38;;
44774;SDS011;31340;51.402;0.016;2023-05-16T07:09:26;17.70;;;3.72;;
44774;SDS011;31340;51.402;0.016;2023-05-16T07:11:53;9.57;;;4.00;;
44774;SDS011;31340;51.402;0.016;2023-05-16T07:14:21;14.57;;;3.90;;
44774;SDS011;31340;51.402;0.016;2023-05-16T07:16:49;13.25;;;3.35;;
44774;SDS011;31340;51.402;0.016;2023-05-16T07:19:17;14.27;;;3.05;;
44774;SDS011;31340;51.402;0.016;2023-05-16T07:21:44;16.35;;;2.65;;
44774;SDS011;31340;51.402;0.016;2023-05-16T07:24:12;13.00;;;2.53;;
44774;SDS011;31340;51.402;0.016;2023-05-16T07:26:41;14.23;;;3.22;;
44774;SDS011;31340;51.402;0.016;2023-05-16T07:29:08;17.98;;;3.20;;
44774;SDS011;31340;51.402;0.016;2023-05-16T07:31:36;15.43;;;3.10;;
44774;SDS011;31340;51.402;0.016;2023-05-16T07:34:04;9.48;;;2.70;;
44774;SDS011;31340;51.402;0.016;2023-05-16T07:36:32;14.07;;;3.25;;
44774;SDS011;31340;51.402;0.016;2023-05-16T07:39:00;10.48;;;2.63;;
44774;SDS011;31340;51.402;0.016;2023-05-16T07:41:28;16.73;;;3.08;;
44774;SDS011;31340;51.402;0.016;2023-05-16T07:43:56;13.30;;;2.60;;
44774;SDS011;31340;51.402;0.016;2023-05-16T07:46:24;15.32;;;2.80;;
44774;SDS011;31340;51.402;0.016;2023-05-16T07:48:52;18.48;;;3.50;;
44774;SDS011;31340;51.402;0.016;2023-05-16T07:51:19;20.02;;;3.40;;
44774;SDS011;31340;51.402;0.016;2023-05-16T07:53:47;17.00;;;2.92;;
44774;SDS011;31340;51.402;0.016;2023-05-16T07:56:15;12.43;;;3.25;;
44774;SDS011;31340;51.402;0.016;2023-05-16T07:58:43;16.40;;;3.30;;
44774;SDS011;31340;51.402;0.016;2023-05-16T08:01:10;14.75;;;3.13;;
44774;SDS011;31340;51.402;0.016;2023-05-16T08:03:38;13.82;;;2.13;;
44774;SDS011;31340;51.402;0.016;2023-05-16T08:06:06;8.38;;;2.30;;
44774;SDS011;31340;51.402;0.016;2023-05-16T08:08:33;15.25;;;2.67;;
44774;SDS011;31340;51.402;0.016;2023-05-16T08:11:01;14.63;;;2.72;;
44774;SDS011;31340;51.402;0.016;2023-05-16T08:13:29;14.07;;;2.65;;
44774;SDS011;31340;51.402;0.016;2023-05-16T08:15:57;13.80;;;2.75;;
44774;SDS011;31340;51.402;0.016;2023-05-16T08:18:25;12.55;;;2.78;;
44774;SDS011;31340;51.402;0.016;2023-05-16T08:20:53;14.95;;;2.80;;
44774;SDS011;31340;51.402;0.016;2023-05-16T08:23:20;13.57;;;2.60;;
44774;SDS011;31340;51.402;0.016;2023-05-16T08:25:48;13.32;;;2.58;;
44774;SDS011;31340;51.402;0.016;2023-05-16T08:28:16;13.10;;;2.50;;
44774;SDS011;31340;51.402;0.016;2023-05-16T08:30:44;8.88;;;1.95;;
44774;SDS011;31340;51.402;0.016;2023-05-16T08:33:14;9.18;;;2.20;;
44774;SDS011;31340;51.402;0.016;2023-05-16T08:35:42;9.73;;;2.58;;
44774;SDS011;31340;51.402;0.016;2023-05-16T08:38:10;8.40;;;2.25;;
44774;SDS011;31340;51.402;0.016;2023-05-16T08:40:38;10.15;;;2.95;;
44774;SDS011;31340;51.402;0.016;2023-05-16T08:43:07;10.60;;;2.97;;
44774;SDS011;31340;51.402;0.016;2023-05-16T08:45:35;10.30;;;2.47;;
44774;SDS011;31340;51.402;0.016;2023-05-16T08:48:03;10.60;;;2.72;;
44774;SDS011;31340;51.402;0.016;2023-05-16T08:50:34;11.90;;;3.53;;
44774;SDS011;31340;51.402;0.016;2023-05-16T08:53:04;11.88;;;1.92;;
44774;SDS011;31340;51.402;0.016;2023-05-16T08:55:34;10.32;;;2.80;;
44774;SDS011;31340;51.402;0.016;2023-05-16T08:58:03;12.73;;;2.80;;
44774;SDS011;31340;51.402;0.016;2023-05-16T09:00:31;6.78;;;2.22;;
44774;SDS011;31340;51.402;0.016;2023-05-16T09:02:59;13.30;;;2.72;;
44774;SDS011;31340;51.402;0.016;2023-05-16T09:05:28;7.57;;;1.88;;
44774;SDS011;31340;51.402;0.016;2023-05-16T09:07:57;10.80;;;2.13;;
44774;SDS011;31340;51.402;0.016;2023-05-16T09:10:24;7.65;;;2.45;;
44774;SDS011;31340;51.402;0.016;2023-05-16T09:12:52;7.97;;;1.88;;
44774;SDS011;31340;51.402;0.016;2023-05-16T09:15:20;11.25;;;2.33;;
44774;SDS011;31340;51.402;0.016;2023-05-16T09:17:48;14.80;;;2.45;;
44774;SDS011;31340;51.402;0.016;2023-05-16T09:20:17;13.98;;;2.03;;
44774;SDS011;31340;51.402;0.016;2023-05-16T09:22:53;10.63;;;1.92;;
44774;SDS011;31340;51.402;0.016;2023-05-16T09:25:23;10.02;;;2.50;;
44774;SDS011;31340;51.402;0.016;2023-05-16T09:27:59;13.13;;;2.33;;
44774;SDS011;31340;51.402;0.016;2023-05-16T09:30:29;11.20;;;1.98;;
44774;SDS011;31340;51.402;0.016;2023-05-16T09:33:00;7.25;;;1.50;;
44774;SDS011;31340;51.402;0.016;2023-05-16T09:35:29;9.55;;;1.67;;
44774;SDS011;31340;51.402;0.016;2023-05-16T09:38:15;9.25;;;1.88;;
44774;SDS011;31340;51.402;0.016;2023-05-16T09:40:43;5.43;;;1.75;;
44774;SDS011;31340;51.402;0.016;2023-05-16T09:43:13;7.20;;;1.67;;
44774;SDS011;31340;51.402;0.016;2023-05-16T09:45:47;7.53;;;1.70;;
44774;SDS011;31340;51.402;0.016;2023-05-16T09:48:15;7.28;;;1.67;;
44774;SDS011;31340;51.402;0.016;2023-05-16T09:50:49;7.28;;;1.45;;
44774;SDS011;31340;51.402;0.016;2023-05-16T09:53:25;6.68;;;1.52;;
44774;SDS011;31340;51.402;0.016;2023-05-16T09:55:58;6.35;;;1.42;;
44774;SDS011;31340;51.402;0.016;2023-05-16T09:58:38;10.40;;;1.60;;
44774;SDS011;31340;51.402;0.016;2023-05-16T10:01:07;8.63;;;1.93;;
44774;SDS011;31340;51.402;0.016;2023-05-16T10:03:39;6.13;;;1.73;;
44774;SDS011;31340;51.402;0.016;2023-05-16T10:06:08;11.25;;;2.45;;
44774;SDS011;31340;51.402;0.016;2023-05-16T10:08:36;8.43;;;1.67;;
44774;SDS011;31340;51.402;0.016;2023-05-16T10:11:08;7.40;;;1.55;;
44774;SDS011;31340;51.402;0.016;2023-05-16T10:13:36;6.65;;;1.67;;
44774;SDS011;31340;51.402;0.016;2023-05-16T10:16:06;6.10;;;1.77;;
44774;SDS011;31340;51.402;0.016;2023-05-16T10:18:37;8.93;;;1.90;;
44774;SDS011;31340;51.402;0.016;2023-05-16T10:21:14;6.85;;;1.67;;
44774;SDS011;31340;51.402;0.016;2023-05-16T10:23:43;7.38;;;1.15;;
44774;SDS011;31340;51.402;0.016;2023-05-16T10:26:15;9.57;;;2.00;;
44774;SDS011;31340;51.402;0.016;2023-05-16T10:28:43;8.75;;;2.05;;
44774;SDS011;31340;51.402;0.016;2023-05-16T10:31:12;4.80;;;1.60;;
44774;SDS011;31340;51.402;0.016;2023-05-16T10:33:41;7.43;;;1.70;;
44774;SDS011;31340;51.402;0.016;2023-05-16T10:36:09;9.10;;;1.52;;
44774;SDS011;31340;51.402;0.016;2023-05-16T10:38:38;5.40;;;1.30;;
44774;SDS011;31340;51.402;0.016;2023-05-16T10:41:06;4.82;;;1.52;;
44774;SDS011;31340;51.402;0.016;2023-05-16T10:43:34;9.10;;;1.65;;
44774;SDS011;31340;51.402;0.016;2023-05-16T10:46:03;6.70;;;1.60;;
44774;SDS011;31340;51.402;0.016;2023-05-16T10:48:38;9.13;;;1.80;;
44774;SDS011;31340;51.402;0.016;2023-05-16T10:53:50;7.55;;;2.10;;
44774;SDS011;31340;51.402;0.016;2023-05-16T10:56:22;7.30;;;1.92;;
44774;SDS011;31340;51.402;0.016;2023-05-16T10:58:52;7.90;;;2.10;;
44774;SDS011;31340;51.402;0.016;2023-05-16T11:01:26;7.97;;;1.73;;
44774;SDS011;31340;51.402;0.016;2023-05-16T11:04:02;4.53;;;1.33;;
44774;SDS011;31340;51.402;0.016;2023-05-16T11:14:34;6.15;;;1.63;;
44774;SDS011;31340;51.402;0.016;2023-05-16T11:17:15;7.18;;;2.35;;
44774;SDS011;31340;51.402;0.016;2023-05-16T11:19:51;5.65;;;1.50;;
44774;SDS011;31340;51.402;0.016;2023-05-16T11:22:27;6.53;;;2.05;;
44774;SDS011;31340;51.402;0.016;2023-05-16T11:25:03;9.13;;;2.10;;
44774;SDS011;31340;51.402;0.016;2023-05-16T11:27:35;8.68;;;2.22;;
44774;SDS011;31340;51.402;0.016;2023-05-16T11:30:14;7.03;;;1.70;;
44774;SDS011;31340;51.402;0.016;2023-05-16T11:32:44;6.97;;;1.80;;
44774;SDS011;31340;51.402;0.016;2023-05-16T11:35:14;6.57;;;2.20;;
44774;SDS011;31340;51.402;0.016;2023-05-16T11:37:44;7.28;;;1.67;;
44774;SDS011;31340;51.402;0.016;2023-05-16T11:40:13;7.78;;;1.85;;
44774;SDS011;31340;51.402;0.016;2023-05-16T11:42:43;7.63;;;1.70;;
44774;SDS011;31340;51.402;0.016;2023-05-16T11:45:19;5.32;;;1.70;;
44774;SDS011;31340;51.402;0.016;2023-05-16T11:47:51;7.57;;;1.70;;
44774;SDS011;31340;51.402;0.016;2023-05-16T11:50:20;8.35;;;1.70;;
44774;SDS011;31340;51.402;0.016;2023-05-16T11:52:50;4.95;;;1.77;;
44774;SDS011;31340;51.402;0.016;2023-05-16T11:55:21;7.45;;;1.83;;
44774;SDS011;31340;51.402;0.016;2023-05-16T11:58:08;7.32;;;2.00;;
44774;SDS011;31340;51.402;0.016;2023-05-16T12:00:43;5.07;;;1.70;;
44774;SDS011;31340;51.402;0.016;2023-05-16T12:03:14;6.35;;;1.75;;
44774;SDS011;31340;51.402;0.016;2023-05-16T12:05:52;5.55;;;1.40;;
44774;SDS011;31340;51.402;0.016;2023-05-16T12:08:21;4.05;;;1.30;;
44774;SDS011;31340;51.402;0.016;2023-05-16T12:10:50;7.97;;;1.73;;
44774;SDS011;31340;51.402;0.016;2023-05-16T12:13:19;6.47;;;1.90;;
44774;SDS011;31340;51.402;0.016;2023-05-16T12:15:49;4.43;;;1.10;;
44774;SDS011;31340;51.402;0.016;2023-05-16T12:18:18;6.20;;;1.60;;
44774;SDS011;31340;51.402;0.016;2023-05-16T12:20:51;10.70;;;1.95;;
44774;SDS011;31340;51.402;0.016;2023-05-16T12:23:19;8.02;;;1.77;;
44774;SDS011;31340;51.402;0.016;2023-05-16T12:25:47;6.70;;;1.50;;
44774;SDS011;31340;51.402;0.016;2023-05-16T12:28:15;4.82;;;1.45;;
44774;SDS011;31340;51.402;0.016;2023-05-16T12:30:43;7.63;;;1.98;;
44774;SDS011;31340;51.402;0.016;2023-05-16T12:33:14;6.10;;;1.90;;
44774;SDS011;31340;51.402;0.016;2023-05-16T12:35:43;8.20;;;1.65;;
44774;SDS011;31340;51.402;0.016;2023-05-16T12:38:13;8.18;;;1.70;;
44774;SDS011;31340;51.402;0.016;2023-05-16T12:40:43;5.90;;;1.45;;
44774;SDS011;31340;51.402;0.016;2023-05-16T12:43:12;6.32;;;1.88;;
44774;SDS011;31340;51.402;0.016;2023-05-16T12:45:56;5.72;;;1.88;;
44774;SDS011;31340;51.402;0.016;2023-05-16T12:48:31;6.65;;;1.98;;
44774;SDS011;31340;51.402;0.016;2023-05-16T12:51:13;8.05;;;2.20;;
44774;SDS011;31340;51.402;0.016;2023-05-16T12:53:43;6.15;;;1.80;;
44774;SDS011;31340;51.402;0.016;2023-05-16T12:56:27;3.08;;;1.30;;
44774;SDS011;31340;51.402;0.016;2023-05-16T12:58:55;7.25;;;1.70;;
44774;SDS011;31340;51.402;0.016;2023-05-16T13:01:23;6.60;;;1.73;;
44774;SDS011;31340;51.402;0.016;2023-05-16T13:03:51;6.40;;;1.65;;
44774;SDS011;31340;51.402;0.016;2023-05-16T13:06:18;6.20;;;1.92;;
44774;SDS011;31340;51.402;0.016;2023-05-16T13:08:46;6.32;;;1.55;;
44774;SDS011;31340;51.402;0.016;2023-05-16T13:11:14;6.15;;;1.80;;
44774;SDS011;31340;51.402;0.016;2023-05-16T13:13:41;6.50;;;1.83;;
44774;SDS011;31340;51.402;0.016;2023-05-16T13:16:09;6.70;;;1.77;;
44774;SDS011;31340;51.402;0.016;2023-05-16T13:18:36;5.18;;;1.80;;
44774;SDS011;31340;51.402;0.016;2023-05-16T13:21:04;6.38;;;1.48;;
44774;SDS011;31340;51.402;0.016;2023-05-16T13:23:32;6.78;;;1.73;;
44774;SDS011;31340;51.402;0.016;2023-05-16T13:26:00;6.57;;;1.40;;
44774;SDS011;31340;51.402;0.016;2023-05-16T13:28:27;6.70;;;1.67;;
44774;SDS011;31340;51.402;0.016;2023-05-16T13:30:55;7.68;;;1.60;;
44774;SDS011;31340;51.402;0.016;2023-05-16T13:33:25;6.22;;;2.28;;
44774;SDS011;31340;51.402;0.016;2023-05-16T13:35:53;7.78;;;1.70;;
44774;SDS011;31340;51.402;0.016;2023-05-16T13:38:22;6.88;;;1.90;;
44774;SDS011;31340;51.402;0.016;2023-05-16T13:40:49;7.45;;;1.80;;
44774;SDS011;31340;51.402;0.016;2023-05-16T13:43:17;4.32;;;1.50;;
44774;SDS011;31340;51.402;0.016;2023-05-16T13:45:45;6.63;;;1.50;;
44774;SDS011;31340;51.402;0.016;2023-05-16T13:48:13;7.88;;;2.47;;
44774;SDS011;31340;51.402;0.016;2023-05-16T13:50:40;5.68;;;1.65;;
44774;SDS011;31340;51.402;0.016;2023-05-16T13:53:10;4.57;;;1.73;;
44774;SDS011;31340;51.402;0.016;2023-05-16T13:55:38;4.95;;;1.60;;
44774;SDS011;31340;51.402;0.016;2023-05-16T13:58:05;6.07;;;1.80;;
44774;SDS011;31340;51.402;0.016;2023-05-16T14:00:33;4.95;;;1.45;;
44774;SDS011;31340;51.402;0.016;2023-05-16T14:03:11;9.40;;;1.90;;
44774;SDS011;31340;51.402;0.016;2023-05-16T14:05:39;6.65;;;2.40;;
44774;SDS011;31340;51.402;0.016;2023-05-16T14:08:07;5.15;;;2.08;;
44774;SDS011;31340;51.402;0.016;2023-05-16T14:10:35;7.90;;;2.22;;
44774;SDS011;31340;51.402;0.016;2023-05-16T14:13:02;6.10;;;1.67;;
44774;SDS011;31340;51.402;0.016;2023-05-16T14:15:30;5.03;;;1.83;;
44774;SDS011;31340;51.402;0.016;2023-05-16T14:17:58;7.07;;;1.60;;
44774;SDS011;31340;51.402;0.016;2023-05-16T14:20:26;7.88;;;1.98;;
44774;SDS011;31340;51.402;0.016;2023-05-16T14:22:53;5.75;;;2.22;;
44774;SDS011;31340;51.402;0.016;2023-05-16T14:25:21;5.40;;;2.47;;
44774;SDS011;31340;51.402;0.016;2023-05-16T14:27:49;10.43;;;2.20;;
44774;SDS011;31340;51.402;0.016;2023-05-16T14:30:17;9.45;;;2.22;;
44774;SDS011;31340;51.402;0.016;2023-05-16T14:32:45;6.07;;;2.30;;
44774;SDS011;31340;51.402;0.016;2023-05-16T14:35:13;7.55;;;2.33;;
44774;SDS011;31340;51.402;0.016;2023-05-16T14:37:40;6.78;;;2.15;;
44774;SDS011;31340;51.402;0.016;2023-05-16T14:40:08;7.03;;;2.55;;
44774;SDS011;31340;51.402;0.016;2023-05-16T14:42:36;8.43;;;2.70;;
44774;SDS011;31340;51.402;0.016;2023-05-16T14:45:04;8.32;;;2.92;;
44774;SDS011;31340;51.402;0.016;2023-05-16T14:47:33;7.20;;;2.53;;
44774;SDS011;31340;51.402;0.016;2023-05-16T14:50:00;6.95;;;2.80;;
44774;SDS011;31340;51.402;0.016;2023-05-16T14:52:28;5.88;;;2.60;;
44774;SDS011;31340;51.402;0.016;2023-05-16T14:54:56;10.18;;;2.63;;
44774;SDS011;31340;51.402;0.016;2023-05-16T14:57:24;10.68;;;2.97;;
44774;SDS011;31340;51.402;0.016;2023-05-16T14:59:51;8.23;;;3.03;;
44774;SDS011;31340;51.402;0.016;2023-05-16T15:02:19;7.40;;;2.33;;
44774;SDS011;31340;51.402;0.016;2023-05-16T15:04:47;9.82;;;2.85;;
44774;SDS011;31340;51.402;0.016;2023-05-16T15:07:15;8.63;;;2.42;;
44774;SDS011;31340;51.402;0.016;2023-05-16T15:09:43;7.60;;;2.90;;
44774;SDS011;31340;51.402;0.016;2023-05-16T15:12:11;8.20;;;3.20;;